Sunday, December 16, 2018, 4:00 PM GMT
Back to Local

CWPS, Long Point Meteorological Aeronautical Presentation System

Location: , , Canada Lat: 42.567
Local Time: 4:00 PM GMT (16:00 GMT) Lon: -80.05
Time Zone: GMT Elev: 574 ft

Show me the last for .
Show Coded

Time T Td Feel RH Dir Speed Gust Alt SLP Vis Weather Sky Remarks
2018-12-16 15:00 38 34 28 86 350° 18 - - 30.03 0 Peak wind: 23 mph (20 kts) from 0° at 18 min
2018-12-16 14:00 38 34 27 86 360° 20 - - 30.02 0 Peak wind: 25 mph (22 kts) from 350° at 05 min
2018-12-16 13:00 38 34 27 84 360° 23 - - 30.02 0 Peak wind: 26 mph (23 kts) from 10° at 06 min
2018-12-16 12:00 38 34 27 84 10° 24 - - 30.01 0 Peak wind: 29 mph (26 kts) from 20° at 10 min
2018-12-16 11:00 38 34 27 84 10° 25 - - 30.02 0 Peak wind: 31 mph (27 kts) from 10° at 32 min
2018-12-16 10:00 38 34 26 85 10° 26 - - 30.01 0 Peak wind: 32 mph (28 kts) from 10° at 16 min
2018-12-16 09:00 37 33 25 86 10° 28 - - 30.02 0 Peak wind: 33 mph (29 kts) from 10° at 10 min
2018-12-16 08:00 38 33 25 84 10° 31 - - 30.03 0 Peak wind: 35 mph (31 kts) from 10° at 53 min
2018-12-16 07:00 38 34 25 85 20° 31 - - 30.06 0 Peak wind: 37 mph (33 kts) from 20° at 14 min
2018-12-16 06:00 38 34 25 84 20° 33 - - 30.07 0 Peak wind: 37 mph (33 kts) from 20° at 53 min
2018-12-16 05:00 38 34 24 85 20° 33 40 - 30.09 0 Peak wind: 41 mph (36 kts) from 10° at 02 min
2018-12-16 04:00 38 34 24 84 10° 36 - - 30.11 0 Peak wind: 42 mph (37 kts) from 20° at 17 min
2018-12-16 03:00 38 33 24 84 10° 37 - - 30.13 0 Peak wind: 41 mph (36 kts) from 0° at 49 min
2018-12-16 02:00 38 34 25 85 10° 33 - - 30.14 0 Peak wind: 37 mph (33 kts) from 0° at 11 min
2018-12-16 01:00 38 35 25 86 360° 33 - - 30.13 0 Peak wind: 37 mph (33 kts) from 0° at 54 min
2018-12-16 00:00 38 35 26 86 360° 31 - - 30.14 0 Peak wind: 35 mph (31 kts) from 0° at 43 min
2018-12-15 23:00 38 35 26 87 360° 30 - - 30.14 0 Peak wind: 32 mph (28 kts) from 360° at 48 min
2018-12-15 22:00 38 35 26 87 360° 28 - - 30.13 0 Peak wind: 31 mph (27 kts) from 360° at 31 min
2018-12-15 21:00 39 34 28 83 360° 26 - - 30.14 0 Peak wind: 29 mph (26 kts) from 10° at 00 min
2018-12-15 20:00 39 35 28 83 360° 26 - - 30.12 0 Peak wind: 31 mph (27 kts) from 10° at 10 min
2018-12-15 19:00 38 34 26 84 10° 31 - - 30.11 0 Peak wind: 33 mph (29 kts) from 0° at 54 min
2018-12-15 18:00 38 34 26 86 10° 26 - - 30.13 0 Peak wind: 32 mph (28 kts) from 10° at 25 min
2018-12-15 17:00 37 34 25 87 10° 28 - - 30.14 0 Peak wind: 31 mph (27 kts) from 10° at 58 min

Support USWX by starting your Amazon purchase here.